createdAt,value
2023-03-02T00:02:21.252Z,1.80
2023-03-02T00:04:54.757Z,1.80
2023-03-02T00:07:31.993Z,1.80
2023-03-02T00:09:58.926Z,1.80
2023-03-02T00:12:28.969Z,1.90
2023-03-02T00:14:55.720Z,1.90
2023-03-02T00:17:27.782Z,1.90
2023-03-02T00:20:09.727Z,1.90
2023-03-02T00:22:41.304Z,1.90
2023-03-02T00:25:08.270Z,1.80
2023-03-02T00:27:35.035Z,1.80
2023-03-02T00:30:01.903Z,1.80
2023-03-02T00:32:28.670Z,1.80
2023-03-02T00:34:55.401Z,1.80
2023-03-02T00:37:22.103Z,1.80
2023-03-02T00:39:51.973Z,1.80
2023-03-02T00:42:19.120Z,1.80
2023-03-02T00:44:45.815Z,1.80
2023-03-02T00:47:13.059Z,1.80
2023-03-02T00:49:39.826Z,1.90
2023-03-02T00:52:06.585Z,1.90
2023-03-02T00:54:33.296Z,1.90
2023-03-02T00:56:59.999Z,1.90
2023-03-02T00:59:26.855Z,1.90
2023-03-02T01:01:58.913Z,1.90
2023-03-02T01:04:29.578Z,1.90
2023-03-02T01:07:04.636Z,1.90
2023-03-02T01:09:32.088Z,1.90
2023-03-02T01:11:59.379Z,1.80
2023-03-02T01:14:26.486Z,1.80
2023-03-02T01:16:53.254Z,1.80
2023-03-02T01:19:20.089Z,1.80
2023-03-02T01:21:50.101Z,1.80
2023-03-02T01:24:16.854Z,1.80
2023-03-02T01:26:43.604Z,1.80
2023-03-02T01:29:11.566Z,1.80
2023-03-02T01:31:39.055Z,1.80
2023-03-02T01:34:05.863Z,1.70
2023-03-02T01:36:35.662Z,1.70
2023-03-02T01:39:02.488Z,1.70
2023-03-02T01:41:29.186Z,1.70
2023-03-02T01:43:55.911Z,1.70
2023-03-02T01:46:28.280Z,1.70
2023-03-02T01:49:00.641Z,1.70
2023-03-02T01:51:30.389Z,1.70
2023-03-02T01:54:03.204Z,1.70
2023-03-02T01:56:35.072Z,1.70
2023-03-02T01:59:07.650Z,1.70
2023-03-02T02:01:37.568Z,1.60
2023-03-02T02:04:04.751Z,1.60
2023-03-02T02:06:40.584Z,1.60
2023-03-02T02:09:09.268Z,1.50
2023-03-02T02:11:36.204Z,1.60
2023-03-02T02:14:03.393Z,1.50
2023-03-02T02:16:33.594Z,1.50
2023-03-02T02:19:02.431Z,1.40
2023-03-02T02:21:29.651Z,1.40
2023-03-02T02:24:11.455Z,1.40
2023-03-02T02:26:48.621Z,1.40
2023-03-02T02:29:24.367Z,1.30
2023-03-02T02:32:02.733Z,1.30
2023-03-02T02:34:34.502Z,1.30
2023-03-02T02:37:17.080Z,1.30
2023-03-02T02:39:47.850Z,1.30
2023-03-02T02:42:22.344Z,1.20
2023-03-02T02:44:49.712Z,1.20
2023-03-02T02:47:21.528Z,1.20
2023-03-02T02:49:50.501Z,1.20
2023-03-02T02:52:20.896Z,1.10
2023-03-02T02:54:50.781Z,1.10
2023-03-02T02:57:19.462Z,1.00
2023-03-02T02:59:53.411Z,1.00
2023-03-02T03:02:23.760Z,1.00
2023-03-02T03:04:50.833Z,1.00
2023-03-02T03:07:24.887Z,1.00
2023-03-02T03:10:13.616Z,1.00
2023-03-02T03:12:40.490Z,1.00
2023-03-02T03:15:08.701Z,1.00
2023-03-02T03:17:35.522Z,1.00
2023-03-02T03:20:09.178Z,1.00
2023-03-02T03:22:37.841Z,0.90
2023-03-02T03:25:05.418Z,0.90
2023-03-02T03:27:32.352Z,0.90
2023-03-02T03:30:01.744Z,0.80
2023-03-02T03:32:28.598Z,0.90
2023-03-02T03:34:55.414Z,0.90
2023-03-02T03:37:22.377Z,0.80
2023-03-02T03:39:49.059Z,0.80
2023-03-02T03:42:15.813Z,0.80
2023-03-02T03:44:42.690Z,0.80
2023-03-02T03:47:09.469Z,0.80
2023-03-02T03:49:36.210Z,0.90
2023-03-02T03:52:03.741Z,0.90
2023-03-02T03:54:30.778Z,0.90
2023-03-02T03:56:57.530Z,0.90
2023-03-02T03:59:25.565Z,0.80
2023-03-02T04:01:56.190Z,0.90
2023-03-02T04:04:32.404Z,0.90
2023-03-02T04:06:59.589Z,0.80
2023-03-02T04:09:26.859Z,0.90
2023-03-02T04:11:55.552Z,0.80
2023-03-02T04:14:23.761Z,0.80
2023-03-02T04:16:51.014Z,0.90
2023-03-02T04:19:17.890Z,0.90
2023-03-02T04:21:48.216Z,0.90
2023-03-02T04:24:16.385Z,0.90
2023-03-02T04:26:43.846Z,0.90
2023-03-02T04:29:12.234Z,0.90
2023-03-02T04:31:39.353Z,0.90
2023-03-02T04:34:07.177Z,0.90
2023-03-02T04:36:37.063Z,0.90
2023-03-02T04:39:05.338Z,0.80
2023-03-02T04:41:32.192Z,0.80
2023-03-02T04:43:58.941Z,0.80
2023-03-02T04:46:27.914Z,0.70
2023-03-02T04:48:55.404Z,0.70
2023-03-02T04:51:33.993Z,0.70
2023-03-02T04:54:03.720Z,0.70
2023-03-02T04:56:31.439Z,0.60
2023-03-02T04:58:59.038Z,0.60
2023-03-02T05:01:26.228Z,0.60
2023-03-02T05:03:53.094Z,0.60
2023-03-02T05:06:21.877Z,0.50
2023-03-02T05:08:49.205Z,0.50
2023-03-02T05:11:25.817Z,0.50
2023-03-02T05:13:58.039Z,0.40
2023-03-02T05:16:28.908Z,0.40
2023-03-02T05:18:56.239Z,0.40
2023-03-02T05:21:23.275Z,0.40
2023-03-02T05:23:50.263Z,0.40
2023-03-02T05:26:17.697Z,0.40
2023-03-02T05:28:44.671Z,0.30
2023-03-02T05:31:42.236Z,0.30
2023-03-02T05:34:13.420Z,0.30
2023-03-02T05:36:40.600Z,0.30
2023-03-02T05:39:08.794Z,0.30
2023-03-02T05:41:36.727Z,0.20
2023-03-02T05:44:03.954Z,0.20
2023-03-02T05:46:31.274Z,0.10
2023-03-02T05:48:58.253Z,0.10
2023-03-02T05:51:24.949Z,0.10
2023-03-02T05:53:51.602Z,0.20
2023-03-02T05:56:20.652Z,0.10
2023-03-02T05:58:47.329Z,0.30
2023-03-02T06:01:15.553Z,0.30
2023-03-02T06:03:43.321Z,0.20
2023-03-02T06:06:14.024Z,0.20
2023-03-02T06:08:42.429Z,0.20
2023-03-02T06:11:09.668Z,0.10
2023-03-02T06:13:36.785Z,0.20
2023-03-02T06:16:03.841Z,0.20
2023-03-02T06:18:30.620Z,0.30
2023-03-02T06:20:57.438Z,0.40
2023-03-02T06:23:24.174Z,0.30
2023-03-02T06:25:50.974Z,0.40
2023-03-02T06:28:21.993Z,0.30
2023-03-02T06:30:49.855Z,0.30
2023-03-02T06:33:18.149Z,0.40
2023-03-02T06:35:45.557Z,0.30
2023-03-02T06:38:12.355Z,0.20
2023-03-02T06:40:39.098Z,0.20
2023-03-02T06:43:05.909Z,0.20
2023-03-02T06:45:33.835Z,0.20
2023-03-02T06:48:01.843Z,0.30
2023-03-02T06:50:28.780Z,0.30
2023-03-02T06:52:55.759Z,0.30
2023-03-02T06:55:22.555Z,0.30
2023-03-02T06:57:49.617Z,0.40
2023-03-02T07:00:17.663Z,0.30
2023-03-02T07:02:45.123Z,0.20
2023-03-02T07:05:12.379Z,0.30
2023-03-02T07:07:39.412Z,0.40
2023-03-02T07:10:07.719Z,0.40
2023-03-02T07:12:34.736Z,0.50
2023-03-02T07:15:01.525Z,0.50
2023-03-02T07:17:28.305Z,0.60
2023-03-02T07:19:55.170Z,0.50
2023-03-02T07:22:22.503Z,0.70
2023-03-02T07:24:49.234Z,0.70
2023-03-02T07:27:15.994Z,0.90
2023-03-02T07:29:42.845Z,0.90
2023-03-02T07:32:12.340Z,0.90
2023-03-02T07:34:39.605Z,1.00
2023-03-02T07:37:06.560Z,1.10
2023-03-02T07:39:33.456Z,1.10
2023-03-02T07:42:01.386Z,1.20
2023-03-02T07:44:28.577Z,1.10
2023-03-02T07:46:55.542Z,1.10
2023-03-02T07:49:22.324Z,1.00
2023-03-02T07:51:49.096Z,0.90
2023-03-02T07:54:15.893Z,1.00
2023-03-02T07:56:43.450Z,1.00
2023-03-02T07:59:12.164Z,1.00
2023-03-02T08:01:39.157Z,1.10
2023-03-02T08:04:05.982Z,1.30
2023-03-02T08:06:32.981Z,1.40
2023-03-02T08:09:03.192Z,1.60
2023-03-02T08:11:30.177Z,1.70
2023-03-02T08:14:00.524Z,1.70
2023-03-02T08:16:27.780Z,1.90
2023-03-02T08:18:59.616Z,1.90
2023-03-02T08:21:27.497Z,1.80
2023-03-02T08:23:54.360Z,1.90
2023-03-02T08:26:21.376Z,2.00
2023-03-02T08:28:48.162Z,1.90
2023-03-02T08:31:15.609Z,1.90
2023-03-02T08:33:42.384Z,1.90
2023-03-02T08:36:14.640Z,1.90
2023-03-02T08:38:41.863Z,2.00
2023-03-02T08:41:12.955Z,2.10
2023-03-02T08:43:39.741Z,2.20
2023-03-02T08:46:07.114Z,2.30
2023-03-02T08:48:34.239Z,2.20
2023-03-02T08:51:10.143Z,2.10
2023-03-02T08:53:38.089Z,2.10
2023-03-02T08:56:07.481Z,2.30
2023-03-02T08:58:34.229Z,2.40
2023-03-02T09:01:01.070Z,2.50
2023-03-02T09:03:27.862Z,2.60
2023-03-02T09:05:54.635Z,2.60
2023-03-02T09:08:21.425Z,2.70
2023-03-02T09:10:48.170Z,2.80
2023-03-02T09:13:14.965Z,3.00
2023-03-02T09:15:41.681Z,2.70
2023-03-02T09:18:08.525Z,2.70
2023-03-02T09:20:35.219Z,2.70
2023-03-02T09:23:02.028Z,2.80
2023-03-02T09:25:29.451Z,2.70
2023-03-02T09:27:56.183Z,2.80
2023-03-02T09:30:22.973Z,2.90
2023-03-02T09:32:52.747Z,3.00
2023-03-02T09:35:19.560Z,3.20
2023-03-02T09:37:46.393Z,3.30
2023-03-02T09:40:22.496Z,3.30
2023-03-02T09:43:03.542Z,3.30
2023-03-02T09:45:58.276Z,3.30
2023-03-02T09:48:33.153Z,3.10
2023-03-02T09:51:23.920Z,3.10
2023-03-02T09:53:59.780Z,3.20
2023-03-02T09:56:26.541Z,3.20
2023-03-02T09:59:05.236Z,3.10
2023-03-02T10:01:38.090Z,3.30
2023-03-02T10:04:22.621Z,3.20
2023-03-02T10:06:55.692Z,3.00
2023-03-02T10:09:22.698Z,3.20
2023-03-02T10:12:15.601Z,3.30
2023-03-02T10:15:10.507Z,3.20
2023-03-02T10:17:58.293Z,3.20
2023-03-02T10:20:35.771Z,3.20
2023-03-02T10:23:23.721Z,3.20
2023-03-02T10:26:05.958Z,3.30
2023-03-02T10:28:41.290Z,3.40
2023-03-02T10:31:27.529Z,3.60
2023-03-02T10:33:55.093Z,3.70
2023-03-02T10:36:30.635Z,3.80
2023-03-02T10:39:00.354Z,3.80
2023-03-02T10:41:36.474Z,4.00
2023-03-02T10:44:15.414Z,4.20
2023-03-02T10:46:44.283Z,4.30
2023-03-02T10:49:25.108Z,4.30
2023-03-02T10:52:06.922Z,4.30
2023-03-02T10:54:35.267Z,4.20
2023-03-02T10:57:04.638Z,4.20
2023-03-02T10:59:40.572Z,4.20
2023-03-02T11:02:10.268Z,4.30
2023-03-02T11:04:37.048Z,4.30
2023-03-02T11:07:18.840Z,4.30
2023-03-02T11:10:00.066Z,4.40
2023-03-02T11:12:27.061Z,4.40
2023-03-02T11:15:12.570Z,4.40
2023-03-02T11:17:41.086Z,4.40
2023-03-02T11:20:23.735Z,4.50
2023-03-02T11:23:10.538Z,4.70
2023-03-02T11:25:45.069Z,4.90
2023-03-02T11:28:30.369Z,5.10
2023-03-02T11:30:59.483Z,5.40
2023-03-02T11:33:30.612Z,5.70
2023-03-02T11:36:07.842Z,6.00
2023-03-02T11:38:44.268Z,6.30
2023-03-02T11:41:27.289Z,7.10
2023-03-02T11:43:54.874Z,7.60
2023-03-02T11:46:30.669Z,8.00
2023-03-02T11:49:03.582Z,8.10
2023-03-02T11:51:35.511Z,8.10
2023-03-02T11:54:05.160Z,7.90
2023-03-02T11:56:38.088Z,8.10
2023-03-02T11:59:17.137Z,10.30
2023-03-02T12:01:47.903Z,13.40
2023-03-02T12:04:33.948Z,15.90
2023-03-02T12:07:23.692Z,17.40
2023-03-02T12:10:24.407Z,18.30
2023-03-02T12:13:23.110Z,18.70
2023-03-02T12:15:50.873Z,19.30
2023-03-02T12:18:23.394Z,19.60
2023-03-02T12:21:05.543Z,20.20
2023-03-02T12:23:54.305Z,20.20
2023-03-02T12:26:20.908Z,20.10
2023-03-02T12:29:02.390Z,20.60
2023-03-02T12:31:50.955Z,21.10
2023-03-02T12:34:34.988Z,21.00
2023-03-02T12:37:21.361Z,21.00
2023-03-02T12:40:18.197Z,21.20
2023-03-02T12:42:56.339Z,21.50
2023-03-02T12:45:56.600Z,21.00
2023-03-02T12:48:38.822Z,21.10
2023-03-02T12:51:12.393Z,21.20
2023-03-02T12:53:41.041Z,21.30
2023-03-02T12:56:09.191Z,21.40
2023-03-02T12:58:36.619Z,21.60
2023-03-02T13:01:04.083Z,21.10
2023-03-02T13:03:31.823Z,21.20
2023-03-02T13:06:15.206Z,21.00
2023-03-02T13:08:47.977Z,21.50
2023-03-02T13:11:31.146Z,21.50
2023-03-02T13:13:59.621Z,21.50
2023-03-02T13:16:32.509Z,21.50
2023-03-02T13:19:03.263Z,21.70
2023-03-02T13:21:37.536Z,21.70
2023-03-02T13:24:24.928Z,21.60
2023-03-02T13:26:57.030Z,21.90
2023-03-02T13:29:27.815Z,21.60
2023-03-02T13:31:55.064Z,21.20
2023-03-02T13:34:31.119Z,20.80
2023-03-02T13:36:58.429Z,20.70
2023-03-02T13:39:31.522Z,20.50
2023-03-02T13:42:00.933Z,20.20
2023-03-02T13:44:32.906Z,19.80
2023-03-02T13:47:00.718Z,19.60
2023-03-02T13:49:30.428Z,19.60
2023-03-02T13:52:07.781Z,19.50
2023-03-02T13:54:37.138Z,19.40
2023-03-02T13:57:06.255Z,18.90
2023-03-02T13:59:36.715Z,18.30
2023-03-02T14:02:23.047Z,17.30
2023-03-02T14:04:49.789Z,16.60
2023-03-02T14:07:17.586Z,15.70
2023-03-02T14:09:45.449Z,15.50
2023-03-02T14:12:27.128Z,15.00
2023-03-02T14:14:57.943Z,14.20
2023-03-02T14:17:26.033Z,13.60
2023-03-02T14:19:56.197Z,12.70
2023-03-02T14:22:25.196Z,11.40
2023-03-02T14:24:52.118Z,10.70
2023-03-02T14:27:19.286Z,10.00
2023-03-02T14:29:46.879Z,9.30
2023-03-02T14:32:15.753Z,8.90
2023-03-02T14:34:42.524Z,8.80
2023-03-02T14:37:14.799Z,8.70
2023-03-02T14:39:44.057Z,8.30
2023-03-02T14:42:19.342Z,7.80
2023-03-02T14:44:47.427Z,7.20
2023-03-02T14:47:16.546Z,6.70
2023-03-02T14:49:44.054Z,6.60
2023-03-02T14:52:35.236Z,6.40
2023-03-02T14:55:23.706Z,6.30
2023-03-02T14:57:55.478Z,6.10
2023-03-02T15:00:22.636Z,5.80
2023-03-02T15:02:49.670Z,5.60
2023-03-02T15:05:16.742Z,5.50
2023-03-02T15:07:43.706Z,5.40
2023-03-02T15:10:17.542Z,5.40
2023-03-02T15:12:44.251Z,5.30
2023-03-02T15:15:11.740Z,5.30
2023-03-02T15:17:39.873Z,5.10
2023-03-02T15:20:07.446Z,5.00
2023-03-02T15:22:34.602Z,4.80
2023-03-02T15:25:01.345Z,4.70
2023-03-02T15:27:28.083Z,4.70
2023-03-02T15:29:56.803Z,4.70
2023-03-02T15:32:23.892Z,4.70
2023-03-02T15:34:50.657Z,4.80
2023-03-02T15:37:17.376Z,4.70
2023-03-02T15:39:44.512Z,4.70
2023-03-02T15:42:13.502Z,4.70
2023-03-02T15:44:40.696Z,4.60
2023-03-02T15:47:07.511Z,4.70
2023-03-02T15:49:34.358Z,4.70
2023-03-02T15:52:01.297Z,4.40
2023-03-02T15:54:28.677Z,4.40
2023-03-02T15:56:56.057Z,4.40
2023-03-02T15:59:28.117Z,4.30
2023-03-02T16:01:59.362Z,4.30
2023-03-02T16:04:26.989Z,4.30
2023-03-02T16:06:54.872Z,4.20
2023-03-02T16:09:22.455Z,4.30
2023-03-02T16:11:50.193Z,4.30
2023-03-02T16:14:17.168Z,4.20
2023-03-02T16:16:47.286Z,3.90
2023-03-02T16:19:18.777Z,3.80
2023-03-02T16:21:47.036Z,3.80
2023-03-02T16:24:16.014Z,3.80
2023-03-02T16:26:42.921Z,3.80
2023-03-02T16:29:11.141Z,3.60
2023-03-02T16:31:39.354Z,3.60
2023-03-02T16:34:08.679Z,3.50
2023-03-02T16:36:37.873Z,3.40
2023-03-02T16:39:06.013Z,3.20
2023-03-02T16:41:32.989Z,3.30
2023-03-02T16:44:00.329Z,3.50
2023-03-02T16:46:29.998Z,3.50
2023-03-02T16:48:57.932Z,3.60
2023-03-02T16:51:24.955Z,3.60
2023-03-02T16:53:51.746Z,3.50
2023-03-02T16:56:18.707Z,3.40
2023-03-02T16:58:45.469Z,3.20
2023-03-02T17:01:18.491Z,3.20
2023-03-02T17:03:46.231Z,3.10
2023-03-02T17:06:14.832Z,3.10
2023-03-02T17:08:41.664Z,3.10
2023-03-02T17:11:08.895Z,3.10
2023-03-02T17:13:35.675Z,3.10
2023-03-02T17:16:02.863Z,3.10
2023-03-02T17:18:30.289Z,3.10
2023-03-02T17:20:58.789Z,3.10
2023-03-02T17:23:27.143Z,3.10
2023-03-02T17:25:54.672Z,3.10
2023-03-02T17:28:21.464Z,3.10
2023-03-02T17:30:48.175Z,3.10
2023-03-02T17:33:15.025Z,3.20
2023-03-02T17:35:42.762Z,3.10
2023-03-02T17:38:10.073Z,3.20
2023-03-02T17:40:37.146Z,3.30
2023-03-02T17:43:03.874Z,3.40
2023-03-02T17:45:30.537Z,3.40
2023-03-02T17:47:58.638Z,3.30
2023-03-02T17:50:26.353Z,3.30
2023-03-02T17:52:54.038Z,3.40
2023-03-02T17:55:20.874Z,3.40
2023-03-02T17:57:47.623Z,3.40
2023-03-02T18:00:17.368Z,3.40
2023-03-02T18:02:44.188Z,3.50
2023-03-02T18:05:11.829Z,3.50
2023-03-02T18:07:38.842Z,3.50
2023-03-02T18:10:06.565Z,3.60
2023-03-02T18:12:33.953Z,3.60
2023-03-02T18:15:00.679Z,3.60
2023-03-02T18:17:27.512Z,3.50
2023-03-02T18:19:54.288Z,3.30
2023-03-02T18:22:22.044Z,3.30
2023-03-02T18:24:50.407Z,3.30
2023-03-02T18:27:17.394Z,3.40
2023-03-02T18:29:44.121Z,3.30
2023-03-02T18:32:11.708Z,3.30
2023-03-02T18:34:38.846Z,3.20
2023-03-02T18:37:05.890Z,3.20
2023-03-02T18:39:32.885Z,3.20
2023-03-02T18:41:59.837Z,3.30
2023-03-02T18:44:28.324Z,3.30
2023-03-02T18:46:55.518Z,3.30
2023-03-02T18:49:22.413Z,3.30
2023-03-02T18:51:49.200Z,3.10
2023-03-02T18:54:15.951Z,3.10
2023-03-02T18:56:42.689Z,3.10
2023-03-02T18:59:09.713Z,3.10
2023-03-02T19:01:36.475Z,3.10
2023-03-02T19:04:04.963Z,3.10
2023-03-02T19:06:32.824Z,3.10
2023-03-02T19:08:59.691Z,3.20
2023-03-02T19:11:26.792Z,3.10
2023-03-02T19:13:53.626Z,3.20
2023-03-02T19:16:20.574Z,3.10
2023-03-02T19:18:48.633Z,3.10
2023-03-02T19:21:16.054Z,3.20
2023-03-02T19:23:44.113Z,3.10
2023-03-02T19:26:12.261Z,3.00
2023-03-02T19:28:39.980Z,3.00
2023-03-02T19:31:09.299Z,3.00
2023-03-02T19:33:37.408Z,3.00
2023-03-02T19:36:04.908Z,3.00
2023-03-02T19:38:32.002Z,3.00
2023-03-02T19:41:00.643Z,3.00
2023-03-02T19:43:28.048Z,2.90
2023-03-02T19:45:55.651Z,2.80
2023-03-02T19:48:22.381Z,2.80
2023-03-02T19:50:49.482Z,2.70
2023-03-02T19:53:17.356Z,2.70
2023-03-02T19:55:45.030Z,2.60
2023-03-02T19:58:17.066Z,2.60
2023-03-02T20:00:44.948Z,2.70
2023-03-02T20:03:12.203Z,2.60
2023-03-02T20:05:39.669Z,2.60
2023-03-02T20:08:07.633Z,2.60
2023-03-02T20:10:41.541Z,2.60
2023-03-02T20:13:09.116Z,2.70
2023-03-02T20:15:39.120Z,2.70
2023-03-02T20:18:12.837Z,2.50
2023-03-02T20:20:39.759Z,2.50
2023-03-02T20:23:06.753Z,2.50
2023-03-02T20:25:34.174Z,2.40
2023-03-02T20:28:05.443Z,2.50
2023-03-02T20:30:38.212Z,2.50
2023-03-02T20:33:07.200Z,2.40
2023-03-02T20:35:39.845Z,2.40
2023-03-02T20:38:16.828Z,2.50
2023-03-02T20:40:43.871Z,2.60
2023-03-02T20:43:10.633Z,2.60
2023-03-02T20:45:37.409Z,2.60
2023-03-02T20:48:05.332Z,2.60
2023-03-02T20:50:34.961Z,2.60
2023-03-02T20:53:02.146Z,2.60
2023-03-02T20:55:29.334Z,2.70
2023-03-02T20:57:56.987Z,2.70
2023-03-02T21:00:26.792Z,2.60
2023-03-02T21:02:53.586Z,2.70
2023-03-02T21:05:21.365Z,2.60
2023-03-02T21:07:48.210Z,2.60
2023-03-02T21:10:18.658Z,2.70
2023-03-02T21:12:45.861Z,2.70
2023-03-02T21:15:13.112Z,2.70
2023-03-02T21:17:39.773Z,2.70
2023-03-02T21:20:07.458Z,2.70
2023-03-02T21:22:34.397Z,2.60
2023-03-02T21:25:01.580Z,2.40
2023-03-02T21:27:28.910Z,2.50
2023-03-02T21:29:55.706Z,2.50
2023-03-02T21:32:22.466Z,2.50
2023-03-02T21:34:49.159Z,2.40
2023-03-02T21:37:16.022Z,2.30
2023-03-02T21:39:42.767Z,2.40
2023-03-02T21:42:09.510Z,2.30
2023-03-02T21:44:36.250Z,2.30
2023-03-02T21:47:03.139Z,2.10
2023-03-02T21:49:29.944Z,2.10
2023-03-02T21:51:56.626Z,2.20
2023-03-02T21:54:23.335Z,2.30
2023-03-02T21:56:50.048Z,2.40
2023-03-02T21:59:16.822Z,2.40
2023-03-02T22:01:43.979Z,2.50
2023-03-02T22:04:11.044Z,2.50
2023-03-02T22:06:37.798Z,2.50
2023-03-02T22:09:04.929Z,2.60
2023-03-02T22:11:37.098Z,2.60
2023-03-02T22:14:15.149Z,2.50
2023-03-02T22:16:46.368Z,2.50
2023-03-02T22:19:30.586Z,2.50
2023-03-02T22:22:05.413Z,2.50
2023-03-02T22:24:33.492Z,2.40
2023-03-02T22:27:24.098Z,2.40
2023-03-02T22:29:53.293Z,2.30
2023-03-02T22:32:22.002Z,2.30
2023-03-02T22:34:59.867Z,2.30
2023-03-02T22:37:33.781Z,2.40
2023-03-02T22:40:34.293Z,2.40
2023-03-02T22:43:19.424Z,2.40
2023-03-02T22:45:46.120Z,2.30
2023-03-02T22:48:34.926Z,2.30
2023-03-02T22:51:14.001Z,2.30
2023-03-02T22:53:53.924Z,2.40
2023-03-02T22:56:52.278Z,2.40
2023-03-02T22:59:24.740Z,2.40
2023-03-02T23:01:54.005Z,2.40
2023-03-02T23:04:24.703Z,2.40
2023-03-02T23:06:56.375Z,2.40
2023-03-02T23:09:25.958Z,2.40
2023-03-02T23:11:55.680Z,2.40
2023-03-02T23:14:24.085Z,2.40
2023-03-02T23:17:32.948Z,2.40
2023-03-02T23:19:59.774Z,2.40
2023-03-02T23:22:29.644Z,2.40
2023-03-02T23:24:56.796Z,2.40
2023-03-02T23:27:24.349Z,2.40
2023-03-02T23:29:52.157Z,2.40
2023-03-02T23:32:19.580Z,2.40
2023-03-02T23:34:46.913Z,2.40
2023-03-02T23:37:13.704Z,2.40
2023-03-02T23:39:40.380Z,2.40
2023-03-02T23:42:07.120Z,2.40
2023-03-02T23:44:33.931Z,2.40
2023-03-02T23:47:01.355Z,2.40
2023-03-02T23:49:28.024Z,2.40
2023-03-02T23:51:54.787Z,2.20
2023-03-02T23:54:21.576Z,2.20
2023-03-02T23:56:48.255Z,2.20
2023-03-02T23:59:15.360Z,2.10
